sensor_id;sensor_type;location;lat;lon;timestamp;pressure;altitude;pressure_sealevel;temperature;humidity
68634;BME280;55625;47.072;22.192;2022-08-01T00:01:43;99476.09;;;16.96;96.09
68634;BME280;55625;47.072;22.192;2022-08-01T00:04:09;99470.88;;;16.95;96.38
68634;BME280;55625;47.072;22.192;2022-08-01T00:06:35;99483.91;;;16.96;96.34
68634;BME280;55625;47.072;22.192;2022-08-01T00:09:01;99482.41;;;17.00;96.13
68634;BME280;55625;47.072;22.192;2022-08-01T00:11:27;99481.44;;;17.09;95.63
68634;BME280;55625;47.072;22.192;2022-08-01T00:13:52;99481.69;;;17.05;96.08
68634;BME280;55625;47.072;22.192;2022-08-01T00:16:19;99486.84;;;17.01;96.53
68634;BME280;55625;47.072;22.192;2022-08-01T00:18:44;99491.78;;;17.01;96.84
68634;BME280;55625;47.072;22.192;2022-08-01T00:21:10;99485.06;;;17.04;96.33
68634;BME280;55625;47.072;22.192;2022-08-01T00:23:36;99481.63;;;17.00;97.11
68634;BME280;55625;47.072;22.192;2022-08-01T00:26:02;99477.97;;;16.99;97.00
68634;BME280;55625;47.072;22.192;2022-08-01T00:28:28;99479.03;;;17.02;96.92
68634;BME280;55625;47.072;22.192;2022-08-01T00:30:54;99472.22;;;16.99;97.55
68634;BME280;55625;47.072;22.192;2022-08-01T00:33:19;99486.84;;;17.01;97.11
68634;BME280;55625;47.072;22.192;2022-08-01T00:35:45;99493.16;;;17.05;96.92
68634;BME280;55625;47.072;22.192;2022-08-01T00:38:11;99486.13;;;17.06;97.18
68634;BME280;55625;47.072;22.192;2022-08-01T00:40:37;99485.34;;;17.06;97.69
68634;BME280;55625;47.072;22.192;2022-08-01T00:43:03;99480.88;;;17.05;97.42
68634;BME280;55625;47.072;22.192;2022-08-01T00:45:29;99487.91;;;17.04;98.24
68634;BME280;55625;47.072;22.192;2022-08-01T00:47:55;99482.47;;;17.06;97.77
68634;BME280;55625;47.072;22.192;2022-08-01T00:50:20;99489.78;;;17.07;97.83
68634;BME280;55625;47.072;22.192;2022-08-01T00:52:46;99484.53;;;17.05;97.94
68634;BME280;55625;47.072;22.192;2022-08-01T00:55:13;99480.88;;;17.05;98.17
68634;BME280;55625;47.072;22.192;2022-08-01T00:57:40;99481.69;;;17.05;98.01
68634;BME280;55625;47.072;22.192;2022-08-01T01:00:07;99486.13;;;17.06;98.08
68634;BME280;55625;47.072;22.192;2022-08-01T01:02:33;99484.31;;;17.09;98.17
68634;BME280;55625;47.072;22.192;2022-08-01T01:05:00;99489.28;;;17.08;98.39
68634;BME280;55625;47.072;22.192;2022-08-01T01:08:02;99482.75;;;17.08;98.49
68634;BME280;55625;47.072;22.192;2022-08-01T01:10:40;99484.31;;;17.09;98.98
68634;BME280;55625;47.072;22.192;2022-08-01T01:13:41;99490.84;;;17.10;98.85
68634;BME280;55625;47.072;22.192;2022-08-01T01:16:19;99484.59;;;17.11;98.82
68634;BME280;55625;47.072;22.192;2022-08-01T01:29:35;99480.72;;;17.14;98.99
68634;BME280;55625;47.072;22.192;2022-08-01T01:32:17;99490.94;;;17.15;99.48
68634;BME280;55625;47.072;22.192;2022-08-01T01:34:45;99487.28;;;17.15;100.00
68634;BME280;55625;47.072;22.192;2022-08-01T01:37:18;99490.16;;;17.15;99.80
68634;BME280;55625;47.072;22.192;2022-08-01T01:39:48;99489.63;;;17.16;99.43
68634;BME280;55625;47.072;22.192;2022-08-01T01:42:15;99486.78;;;17.16;99.49
68634;BME280;55625;47.072;22.192;2022-08-01T01:44:44;99494.59;;;17.16;99.40
68634;BME280;55625;47.072;22.192;2022-08-01T01:47:13;99497.44;;;17.16;99.46
68634;BME280;55625;47.072;22.192;2022-08-01T01:49:41;99491.72;;;17.16;99.60
68634;BME280;55625;47.072;22.192;2022-08-01T01:52:09;99488.34;;;17.17;99.73
68634;BME280;55625;47.072;22.192;2022-08-01T01:54:42;99480.25;;;17.16;99.94
68634;BME280;55625;47.072;22.192;2022-08-01T01:57:12;99492.28;;;17.20;100.00
68634;BME280;55625;47.072;22.192;2022-08-01T01:59:39;99491.50;;;17.19;99.81
68634;BME280;55625;47.072;22.192;2022-08-01T02:02:06;99489.69;;;17.22;99.74
68634;BME280;55625;47.072;22.192;2022-08-01T02:04:41;99489.69;;;17.22;99.89
68634;BME280;55625;47.072;22.192;2022-08-01T02:07:22;99493.63;;;17.24;100.00
68634;BME280;55625;47.072;22.192;2022-08-01T02:09:49;99493.63;;;17.24;100.00
68634;BME280;55625;47.072;22.192;2022-08-01T02:12:17;99487.09;;;17.24;100.00
68634;BME280;55625;47.072;22.192;2022-08-01T02:14:45;99497.56;;;17.27;100.00
68634;BME280;55625;47.072;22.192;2022-08-01T02:17:17;99489.47;;;17.25;100.00
68634;BME280;55625;47.072;22.192;2022-08-01T02:19:44;99491.53;;;17.25;100.00
68634;BME280;55625;47.072;22.192;2022-08-01T02:22:18;99488.91;;;17.21;100.00
68634;BME280;55625;47.072;22.192;2022-08-01T02:27:30;99494.63;;;17.21;100.00
68634;BME280;55625;47.072;22.192;2022-08-01T02:30:04;99499.38;;;17.24;100.00
68634;BME280;55625;47.072;22.192;2022-08-01T02:32:44;99495.97;;;17.26;100.00
68634;BME280;55625;47.072;22.192;2022-08-01T02:35:26;99488.97;;;17.27;100.00
68634;BME280;55625;47.072;22.192;2022-08-01T02:37:54;99490.03;;;17.29;100.00
68634;BME280;55625;47.072;22.192;2022-08-01T02:40:21;99496.53;;;17.30;100.00
68634;BME280;55625;47.072;22.192;2022-08-01T02:42:51;99491.81;;;17.27;100.00
68634;BME280;55625;47.072;22.192;2022-08-01T02:45:20;99499.13;;;17.28;100.00
68634;BME280;55625;47.072;22.192;2022-08-01T02:47:49;99503.69;;;17.40;99.68
68634;BME280;55625;47.072;22.192;2022-08-01T02:50:16;99498.69;;;17.35;99.36
68634;BME280;55625;47.072;22.192;2022-08-01T02:52:47;99499.13;;;17.28;100.00
68634;BME280;55625;47.072;22.192;2022-08-01T02:55:15;99504.31;;;17.24;100.00
68634;BME280;55625;47.072;22.192;2022-08-01T02:57:42;99504.31;;;17.24;100.00
68634;BME280;55625;47.072;22.192;2022-08-01T03:00:10;99494.41;;;17.25;100.00
68634;BME280;55625;47.072;22.192;2022-08-01T03:02:37;99503.53;;;17.23;100.00
68634;BME280;55625;47.072;22.192;2022-08-01T03:05:05;99501.16;;;17.22;100.00
68634;BME280;55625;47.072;22.192;2022-08-01T03:07:34;99506.13;;;17.21;100.00
68634;BME280;55625;47.072;22.192;2022-08-01T03:10:01;99505.59;;;17.23;100.00
68634;BME280;55625;47.072;22.192;2022-08-01T03:12:29;99501.94;;;17.22;100.00
68634;BME280;55625;47.072;22.192;2022-08-01T03:14:58;99505.09;;;17.24;100.00
68634;BME280;55625;47.072;22.192;2022-08-01T03:17:27;99503.31;;;17.27;100.00
68634;BME280;55625;47.072;22.192;2022-08-01T03:19:57;99507.75;;;17.28;100.00
68634;BME280;55625;47.072;22.192;2022-08-01T03:22:26;99499.91;;;17.28;100.00
68634;BME280;55625;47.072;22.192;2022-08-01T03:24:54;99512.19;;;17.29;100.00
68634;BME280;55625;47.072;22.192;2022-08-01T03:27:23;99502.28;;;17.30;100.00
68634;BME280;55625;47.072;22.192;2022-08-01T03:29:51;99513.19;;;17.26;100.00
68634;BME280;55625;47.072;22.192;2022-08-01T03:32:22;99510.59;;;17.28;100.00
68634;BME280;55625;47.072;22.192;2022-08-01T03:34:48;99504.88;;;17.28;100.00
68634;BME280;55625;47.072;22.192;2022-08-01T03:37:34;99515.34;;;17.31;100.00
68634;BME280;55625;47.072;22.192;2022-08-01T03:40:43;99508.81;;;17.30;100.00
68634;BME280;55625;47.072;22.192;2022-08-01T03:43:30;99526.81;;;17.31;100.00
68634;BME280;55625;47.072;22.192;2022-08-01T03:46:04;99519.16;;;17.22;100.00
68634;BME280;55625;47.072;22.192;2022-08-01T03:48:39;99524.00;;;17.36;99.21
68634;BME280;55625;47.072;22.192;2022-08-01T03:51:07;99523.38;;;17.27;99.58
68634;BME280;55625;47.072;22.192;2022-08-01T03:53:35;99520.41;;;17.16;100.00
68634;BME280;55625;47.072;22.192;2022-08-01T03:56:03;99522.38;;;17.10;100.00
68634;BME280;55625;47.072;22.192;2022-08-01T03:58:30;99526.81;;;17.11;100.00
68634;BME280;55625;47.072;22.192;2022-08-01T04:00:57;99515.59;;;17.07;100.00
68634;BME280;55625;47.072;22.192;2022-08-01T04:03:24;99523.91;;;17.05;100.00
68634;BME280;55625;47.072;22.192;2022-08-01T04:05:51;99526.75;;;17.05;100.00
68634;BME280;55625;47.072;22.192;2022-08-01T04:08:17;99531.50;;;17.08;100.00
68634;BME280;55625;47.072;22.192;2022-08-01T04:10:43;99532.06;;;17.12;100.00
68634;BME280;55625;47.072;22.192;2022-08-01T04:13:09;99537.59;;;17.16;100.00
68634;BME280;55625;47.072;22.192;2022-08-01T04:15:35;99532.44;;;17.20;100.00
68634;BME280;55625;47.072;22.192;2022-08-01T04:18:00;99532.16;;;17.18;100.00
68634;BME280;55625;47.072;22.192;2022-08-01T04:20:26;99525.13;;;17.19;100.00
68634;BME280;55625;47.072;22.192;2022-08-01T04:22:52;99529.56;;;17.20;100.00
68634;BME280;55625;47.072;22.192;2022-08-01T04:25:29;99527.75;;;17.22;100.00
68634;BME280;55625;47.072;22.192;2022-08-01T04:27:59;99531.97;;;17.27;100.00
68634;BME280;55625;47.072;22.192;2022-08-01T04:30:30;99525.75;;;17.28;100.00
68634;BME280;55625;47.072;22.192;2022-08-01T04:33:00;99528.38;;;17.32;99.59
68634;BME280;55625;47.072;22.192;2022-08-01T04:35:27;99527.59;;;17.31;99.96
68634;BME280;55625;47.072;22.192;2022-08-01T04:37:54;99531.81;;;17.36;100.00
68634;BME280;55625;47.072;22.192;2022-08-01T04:40:21;99539.41;;;17.39;100.00
68634;BME280;55625;47.072;22.192;2022-08-01T04:42:49;99527.41;;;17.41;100.00
68634;BME280;55625;47.072;22.192;2022-08-01T04:45:15;99534.72;;;17.42;100.00
68634;BME280;55625;47.072;22.192;2022-08-01T04:47:43;99528.50;;;17.43;100.00
68634;BME280;55625;47.072;22.192;2022-08-01T04:50:10;99519.38;;;17.45;100.00
68634;BME280;55625;47.072;22.192;2022-08-01T04:52:38;99518.38;;;17.48;100.00
68634;BME280;55625;47.072;22.192;2022-08-01T04:55:05;99521.53;;;17.50;100.00
68634;BME280;55625;47.072;22.192;2022-08-01T04:57:38;99517.09;;;17.49;99.53
68634;BME280;55625;47.072;22.192;2022-08-01T05:00:06;99519.19;;;17.48;99.13
68634;BME280;55625;47.072;22.192;2022-08-01T05:02:32;99518.38;;;17.48;99.35
68634;BME280;55625;47.072;22.192;2022-08-01T05:04:58;99515.53;;;17.48;99.02
68634;BME280;55625;47.072;22.192;2022-08-01T05:07:24;99515.00;;;17.49;98.53
68634;BME280;55625;47.072;22.192;2022-08-01T05:09:50;99508.47;;;17.49;97.79
68634;BME280;55625;47.072;22.192;2022-08-01T05:12:17;99521.03;;;17.51;97.13
68634;BME280;55625;47.072;22.192;2022-08-01T05:14:43;99516.34;;;17.54;97.43
68634;BME280;55625;47.072;22.192;2022-08-01T05:17:09;99516.91;;;17.58;97.35
68634;BME280;55625;47.072;22.192;2022-08-01T05:19:38;99514.88;;;17.64;97.49
68634;BME280;55625;47.072;22.192;2022-08-01T05:22:08;99517.03;;;17.69;96.89
68634;BME280;55625;47.072;22.192;2022-08-01T05:24:36;99516.81;;;17.73;96.41
68634;BME280;55625;47.072;22.192;2022-08-01T05:27:04;99513.94;;;17.73;96.91
68634;BME280;55625;47.072;22.192;2022-08-01T05:29:30;99520.47;;;17.73;96.24
68634;BME280;55625;47.072;22.192;2022-08-01T05:31:56;99522.28;;;17.71;95.73
68634;BME280;55625;47.072;22.192;2022-08-01T05:34:23;99522.28;;;17.71;95.69
68634;BME280;55625;47.072;22.192;2022-08-01T05:36:49;99529.31;;;17.69;96.06
68634;BME280;55625;47.072;22.192;2022-08-01T05:39:15;99524.34;;;17.70;95.47
68634;BME280;55625;47.072;22.192;2022-08-01T05:41:41;99526.19;;;17.73;95.61
68634;BME280;55625;47.072;22.192;2022-08-01T05:44:08;99527.78;;;17.74;95.40
68634;BME280;55625;47.072;22.192;2022-08-01T05:46:34;99533.03;;;17.76;96.14
68634;BME280;55625;47.072;22.192;2022-08-01T05:49:03;99526.44;;;17.69;95.32
68634;BME280;55625;47.072;22.192;2022-08-01T05:51:29;99529.06;;;17.73;95.61
68634;BME280;55625;47.072;22.192;2022-08-01T05:53:56;99538.19;;;17.72;95.92
68634;BME280;55625;47.072;22.192;2022-08-01T05:56:22;99548.66;;;17.75;96.43
68634;BME280;55625;47.072;22.192;2022-08-01T05:58:49;99547.66;;;17.78;96.47
68634;BME280;55625;47.072;22.192;2022-08-01T06:01:16;99543.03;;;17.86;96.09
68634;BME280;55625;47.072;22.192;2022-08-01T06:03:42;99545.16;;;17.91;96.35
68634;BME280;55625;47.072;22.192;2022-08-01T06:06:08;99542.56;;;17.93;96.94
68634;BME280;55625;47.072;22.192;2022-08-01T06:08:34;99543.91;;;17.97;95.37
68634;BME280;55625;47.072;22.192;2022-08-01T06:11:00;99544.47;;;18.02;94.45
68634;BME280;55625;47.072;22.192;2022-08-01T06:13:26;99536.69;;;18.08;93.31
68634;BME280;55625;47.072;22.192;2022-08-01T06:15:52;99541.41;;;18.11;93.29
68634;BME280;55625;47.072;22.192;2022-08-01T06:18:19;99538.13;;;18.23;93.77
68634;BME280;55625;47.072;22.192;2022-08-01T06:20:45;99546.28;;;18.36;94.24
68634;BME280;55625;47.072;22.192;2022-08-01T06:23:11;99533.31;;;18.46;93.82
68634;BME280;55625;47.072;22.192;2022-08-01T06:25:36;99550.84;;;18.54;93.46
68634;BME280;55625;47.072;22.192;2022-08-01T06:28:03;99550.88;;;18.59;91.17
68634;BME280;55625;47.072;22.192;2022-08-01T06:30:29;99555.84;;;18.59;91.27
68634;BME280;55625;47.072;22.192;2022-08-01T06:32:55;99551.16;;;18.61;91.26
68634;BME280;55625;47.072;22.192;2022-08-01T06:35:24;99553.81;;;18.65;91.42
68634;BME280;55625;47.072;22.192;2022-08-01T06:37:50;99558.00;;;18.64;90.39
68634;BME280;55625;47.072;22.192;2022-08-01T06:40:16;99561.06;;;18.60;88.27
68634;BME280;55625;47.072;22.192;2022-08-01T06:42:41;99559.78;;;18.61;88.46
68634;BME280;55625;47.072;22.192;2022-08-01T06:45:09;99562.66;;;18.61;88.91
68634;BME280;55625;47.072;22.192;2022-08-01T06:47:39;99570.22;;;18.59;88.78
68634;BME280;55625;47.072;22.192;2022-08-01T06:50:07;99576.28;;;18.67;90.58
68634;BME280;55625;47.072;22.192;2022-08-01T06:52:35;99569.31;;;18.73;90.78
68634;BME280;55625;47.072;22.192;2022-08-01T06:55:01;99571.41;;;18.78;90.39
68634;BME280;55625;47.072;22.192;2022-08-01T06:57:28;99576.94;;;18.87;89.06
68634;BME280;55625;47.072;22.192;2022-08-01T06:59:54;99572.78;;;18.88;89.03
68634;BME280;55625;47.072;22.192;2022-08-01T07:02:20;99578.03;;;18.96;90.48
68634;BME280;55625;47.072;22.192;2022-08-01T07:04:46;99575.16;;;18.96;91.12
68634;BME280;55625;47.072;22.192;2022-08-01T07:07:12;99571.53;;;19.01;90.38
68634;BME280;55625;47.072;22.192;2022-08-01T07:09:38;99574.19;;;19.10;89.06
68634;BME280;55625;47.072;22.192;2022-08-01T07:12:07;99575.50;;;19.09;88.86
68634;BME280;55625;47.072;22.192;2022-08-01T07:14:33;99576.81;;;19.13;88.50
68634;BME280;55625;47.072;22.192;2022-08-01T07:16:58;99577.63;;;19.19;87.97
68634;BME280;55625;47.072;22.192;2022-08-01T07:19:25;99581.28;;;19.20;88.34
68634;BME280;55625;47.072;22.192;2022-08-01T07:21:50;99568.78;;;19.29;86.70
68634;BME280;55625;47.072;22.192;2022-08-01T07:24:16;99575.06;;;19.33;88.21
68634;BME280;55625;47.072;22.192;2022-08-01T07:26:48;99583.75;;;19.49;88.24
68634;BME280;55625;47.072;22.192;2022-08-01T07:29:14;99572.00;;;19.59;87.45
68634;BME280;55625;47.072;22.192;2022-08-01T07:31:40;99578.84;;;19.67;84.69
68634;BME280;55625;47.072;22.192;2022-08-01T07:34:07;99583.84;;;19.77;84.81
68634;BME280;55625;47.072;22.192;2022-08-01T07:36:33;99579.13;;;19.80;83.93
68634;BME280;55625;47.072;22.192;2022-08-01T07:38:59;99587.25;;;19.87;84.34
68634;BME280;55625;47.072;22.192;2022-08-01T07:41:24;99581.75;;;19.89;85.27
68634;BME280;55625;47.072;22.192;2022-08-01T07:43:50;99588.56;;;19.86;85.20
68634;BME280;55625;47.072;22.192;2022-08-01T07:46:16;99585.41;;;19.84;85.55
68634;BME280;55625;47.072;22.192;2022-08-01T07:48:42;99582.53;;;19.84;86.27
68634;BME280;55625;47.072;22.192;2022-08-01T07:51:09;99596.44;;;19.91;86.03
68634;BME280;55625;47.072;22.192;2022-08-01T07:53:36;99594.09;;;19.95;85.44
68634;BME280;55625;47.072;22.192;2022-08-01T07:56:03;99591.44;;;19.86;85.30
68634;BME280;55625;47.072;22.192;2022-08-01T07:58:32;99590.13;;;19.81;85.25
68634;BME280;55625;47.072;22.192;2022-08-01T08:00:58;99597.19;;;19.75;84.63
68634;BME280;55625;47.072;22.192;2022-08-01T08:03:24;99589.06;;;19.73;84.47
68634;BME280;55625;47.072;22.192;2022-08-01T08:05:50;99592.75;;;19.74;84.38
68634;BME280;55625;47.072;22.192;2022-08-01T08:08:16;99600.84;;;19.70;84.97
68634;BME280;55625;47.072;22.192;2022-08-01T08:10:43;99598.50;;;19.74;84.03
68634;BME280;55625;47.072;22.192;2022-08-01T08:13:09;99588.03;;;19.71;83.96
68634;BME280;55625;47.072;22.192;2022-08-01T08:15:35;99598.75;;;19.81;84.69
68634;BME280;55625;47.072;22.192;2022-08-01T08:18:03;99600.91;;;19.92;84.25
68634;BME280;55625;47.072;22.192;2022-08-01T08:20:29;99599.59;;;19.93;82.72
68634;BME280;55625;47.072;22.192;2022-08-01T08:22:56;99597.50;;;19.99;83.34
68634;BME280;55625;47.072;22.192;2022-08-01T08:25:25;99598.53;;;19.91;83.56
68634;BME280;55625;47.072;22.192;2022-08-01T08:27:51;99603.47;;;19.84;84.44
68634;BME280;55625;47.072;22.192;2022-08-01T08:30:17;99604.53;;;19.76;85.48
68634;BME280;55625;47.072;22.192;2022-08-01T08:32:43;99609.22;;;19.68;85.77
68634;BME280;55625;47.072;22.192;2022-08-01T08:35:09;99603.69;;;19.59;85.13
68634;BME280;55625;47.072;22.192;2022-08-01T08:37:37;99614.34;;;19.47;85.53
68634;BME280;55625;47.072;22.192;2022-08-01T08:40:04;99608.84;;;19.43;87.02
68634;BME280;55625;47.072;22.192;2022-08-01T08:42:30;99614.06;;;19.39;87.55
68634;BME280;55625;47.072;22.192;2022-08-01T08:44:56;99615.34;;;19.33;88.38
68634;BME280;55625;47.072;22.192;2022-08-01T08:47:24;99614.00;;;19.28;87.82
68634;BME280;55625;47.072;22.192;2022-08-01T08:49:54;99622.63;;;19.22;88.35
68634;BME280;55625;47.072;22.192;2022-08-01T08:52:21;99621.31;;;19.23;89.95
68634;BME280;55625;47.072;22.192;2022-08-01T08:54:49;99623.72;;;19.31;89.47
68634;BME280;55625;47.072;22.192;2022-08-01T08:57:16;99618.50;;;19.35;87.68
68634;BME280;55625;47.072;22.192;2022-08-01T08:59:44;99619.03;;;19.39;87.25
68634;BME280;55625;47.072;22.192;2022-08-01T09:02:11;99613.03;;;19.42;86.97
68634;BME280;55625;47.072;22.192;2022-08-01T09:04:38;99613.81;;;19.43;86.95
68634;BME280;55625;47.072;22.192;2022-08-01T09:07:06;99618.53;;;19.46;87.43
68634;BME280;55625;47.072;22.192;2022-08-01T09:09:34;99621.66;;;19.42;88.40
68634;BME280;55625;47.072;22.192;2022-08-01T09:12:00;99625.59;;;19.39;87.15
68634;BME280;55625;47.072;22.192;2022-08-01T09:14:27;99628.44;;;19.34;87.77
68634;BME280;55625;47.072;22.192;2022-08-01T09:17:06;99626.88;;;19.38;86.41
68634;BME280;55625;47.072;22.192;2022-08-01T09:19:39;99627.69;;;19.44;85.56
68634;BME280;55625;47.072;22.192;2022-08-01T09:22:10;99618.56;;;19.51;84.15
68634;BME280;55625;47.072;22.192;2022-08-01T09:24:37;99615.50;;;19.66;84.89
68634;BME280;55625;47.072;22.192;2022-08-01T09:27:21;99621.53;;;19.74;84.15
68634;BME280;55625;47.072;22.192;2022-08-01T09:29:52;99622.59;;;19.82;85.21
68634;BME280;55625;47.072;22.192;2022-08-01T09:32:22;99621.81;;;19.87;82.32
68634;BME280;55625;47.072;22.192;2022-08-01T09:34:48;99622.06;;;19.89;82.43
68634;BME280;55625;47.072;22.192;2022-08-01T09:37:14;99622.63;;;19.93;83.25
68634;BME280;55625;47.072;22.192;2022-08-01T09:39:43;99622.38;;;19.97;81.54
68634;BME280;55625;47.072;22.192;2022-08-01T09:42:26;99626.56;;;19.90;83.69
68634;BME280;55625;47.072;22.192;2022-08-01T09:44:53;99634.38;;;19.90;84.22
68634;BME280;55625;47.072;22.192;2022-08-01T09:47:20;99627.59;;;19.93;83.12
68634;BME280;55625;47.072;22.192;2022-08-01T09:49:55;99628.91;;;19.97;81.54
68634;BME280;55625;47.072;22.192;2022-08-01T09:52:24;99635.19;;;19.90;84.23
68634;BME280;55625;47.072;22.192;2022-08-01T09:55:05;99626.25;;;19.88;83.80
68634;BME280;55625;47.072;22.192;2022-08-01T09:57:31;99632.03;;;19.88;84.74
68634;BME280;55625;47.072;22.192;2022-08-01T10:00:00;99627.84;;;19.89;84.53
68634;BME280;55625;47.072;22.192;2022-08-01T10:02:35;99627.88;;;20.11;83.07
68634;BME280;55625;47.072;22.192;2022-08-01T10:05:04;99633.16;;;20.24;79.26
68634;BME280;55625;47.072;22.192;2022-08-01T10:07:31;99634.19;;;20.32;80.35
68634;BME280;55625;47.072;22.192;2022-08-01T10:10:14;99641.28;;;20.42;80.27
68634;BME280;55625;47.072;22.192;2022-08-01T10:12:42;99637.34;;;20.45;78.16
68634;BME280;55625;47.072;22.192;2022-08-01T10:15:09;99633.94;;;20.47;77.34
68634;BME280;55625;47.072;22.192;2022-08-01T10:17:39;99634.47;;;20.57;78.84
68634;BME280;55625;47.072;22.192;2022-08-01T10:20:06;99641.03;;;20.68;79.06
68634;BME280;55625;47.072;22.192;2022-08-01T10:22:32;99638.63;;;20.78;77.15
68634;BME280;55625;47.072;22.192;2022-08-01T10:25:04;99633.41;;;20.82;75.27
68634;BME280;55625;47.072;22.192;2022-08-01T10:27:32;99644.41;;;20.89;75.30
68634;BME280;55625;47.072;22.192;2022-08-01T10:30:03;99639.44;;;20.90;75.58
68634;BME280;55625;47.072;22.192;2022-08-01T10:32:31;99633.91;;;20.97;74.76
68634;BME280;55625;47.072;22.192;2022-08-01T10:34:59;99647.28;;;20.95;75.54
68634;BME280;55625;47.072;22.192;2022-08-01T10:37:26;99642.81;;;20.99;72.52
68634;BME280;55625;47.072;22.192;2022-08-01T10:39:53;99636.75;;;21.03;73.65
68634;BME280;55625;47.072;22.192;2022-08-01T10:42:20;99639.91;;;21.05;74.74
68634;BME280;55625;47.072;22.192;2022-08-01T10:44:47;99632.56;;;21.04;73.90
68634;BME280;55625;47.072;22.192;2022-08-01T10:47:20;99629.94;;;21.00;72.15
68634;BME280;55625;47.072;22.192;2022-08-01T10:50:03;99635.94;;;21.08;72.70
68634;BME280;55625;47.072;22.192;2022-08-01T10:52:29;99623.09;;;21.09;73.07
68634;BME280;55625;47.072;22.192;2022-08-01T10:55:14;99628.34;;;21.16;73.27
68634;BME280;55625;47.072;22.192;2022-08-01T10:57:47;99625.19;;;21.20;71.60
68634;BME280;55625;47.072;22.192;2022-08-01T11:00:22;99625.97;;;21.26;69.72
68634;BME280;55625;47.072;22.192;2022-08-01T11:03:02;99627.78;;;21.29;71.23
68634;BME280;55625;47.072;22.192;2022-08-01T11:05:34;99633.00;;;21.36;72.70
68634;BME280;55625;47.072;22.192;2022-08-01T11:08:20;99623.00;;;21.43;68.03
68634;BME280;55625;47.072;22.192;2022-08-01T11:10:47;99620.91;;;21.49;70.00
68634;BME280;55625;47.072;22.192;2022-08-01T11:13:13;99622.72;;;21.52;69.76
68634;BME280;55625;47.072;22.192;2022-08-01T11:15:40;99620.25;;;21.67;70.80
68634;BME280;55625;47.072;22.192;2022-08-01T11:18:29;99619.63;;;21.85;71.16
68634;BME280;55625;47.072;22.192;2022-08-01T11:21:00;99621.47;;;21.88;68.93
68634;BME280;55625;47.072;22.192;2022-08-01T11:23:28;99625.41;;;21.85;69.17
68634;BME280;55625;47.072;22.192;2022-08-01T11:28:26;99615.69;;;21.88;65.94
68634;BME280;55625;47.072;22.192;2022-08-01T11:38:38;99619.41;;;21.83;68.08
68634;BME280;55625;47.072;22.192;2022-08-01T11:41:23;99619.59;;;21.91;65.28
68634;BME280;55625;47.072;22.192;2022-08-01T11:46:54;99615.72;;;21.83;64.72
68634;BME280;55625;47.072;22.192;2022-08-01T11:49:42;99615.97;;;21.85;63.93
68634;BME280;55625;47.072;22.192;2022-08-01T11:52:30;99610.16;;;21.90;62.89
68634;BME280;55625;47.072;22.192;2022-08-01T11:55:07;99602.50;;;21.93;65.94
68634;BME280;55625;47.072;22.192;2022-08-01T11:57:34;99604.06;;;22.05;63.72
68634;BME280;55625;47.072;22.192;2022-08-01T12:00:19;99602.69;;;22.12;65.18
68634;BME280;55625;47.072;22.192;2022-08-01T12:02:46;99602.16;;;22.13;64.38
68634;BME280;55625;47.072;22.192;2022-08-01T12:05:21;99598.38;;;22.24;64.56
68634;BME280;55625;47.072;22.192;2022-08-01T12:07:51;99609.31;;;22.37;65.46
68634;BME280;55625;47.072;22.192;2022-08-01T12:10:20;99598.03;;;22.33;63.44
68634;BME280;55625;47.072;22.192;2022-08-01T12:12:55;99600.84;;;22.44;62.38
68634;BME280;55625;47.072;22.192;2022-08-01T12:15:24;99596.22;;;22.60;62.67
68634;BME280;55625;47.072;22.192;2022-08-01T12:18:02;99606.91;;;22.71;63.71
68634;BME280;55625;47.072;22.192;2022-08-01T12:20:38;99599.47;;;22.81;61.84
68634;BME280;55625;47.072;22.192;2022-08-01T12:23:08;99608.78;;;22.68;62.30
68634;BME280;55625;47.072;22.192;2022-08-01T12:25:35;99599.06;;;22.66;61.39
68634;BME280;55625;47.072;22.192;2022-08-01T12:28:06;99598.56;;;22.61;63.22
68634;BME280;55625;47.072;22.192;2022-08-01T12:30:34;99598.75;;;22.69;61.66
68634;BME280;55625;47.072;22.192;2022-08-01T12:33:09;99602.19;;;22.68;62.00
68634;BME280;55625;47.072;22.192;2022-08-01T12:35:38;99600.91;;;22.63;62.04
68634;BME280;55625;47.072;22.192;2022-08-01T12:38:14;99598.78;;;22.63;62.97
68634;BME280;55625;47.072;22.192;2022-08-01T12:40:43;99602.09;;;22.79;62.25
68634;BME280;55625;47.072;22.192;2022-08-01T12:43:14;99598.16;;;22.76;63.14
68634;BME280;55625;47.072;22.192;2022-08-01T12:45:43;99598.38;;;22.84;61.93
68634;BME280;55625;47.072;22.192;2022-08-01T12:48:15;99605.13;;;22.92;59.92
68634;BME280;55625;47.072;22.192;2022-08-01T12:50:47;99596.66;;;22.94;61.38
68634;BME280;55625;47.072;22.192;2022-08-01T12:53:15;99591.94;;;22.97;59.77
68634;BME280;55625;47.072;22.192;2022-08-01T12:56:00;99590.16;;;23.12;60.43
68634;BME280;55625;47.072;22.192;2022-08-01T12:58:33;99595.63;;;23.16;59.51
68634;BME280;55625;47.072;22.192;2022-08-01T13:01:06;99588.88;;;23.32;59.70
68634;BME280;55625;47.072;22.192;2022-08-01T13:03:32;99599.28;;;23.41;60.28
68634;BME280;55625;47.072;22.192;2022-08-01T13:05:58;99598.44;;;23.46;59.60
68634;BME280;55625;47.072;22.192;2022-08-01T13:08:34;99591.31;;;23.47;58.69
68634;BME280;55625;47.072;22.192;2022-08-01T13:11:09;99594.19;;;23.47;58.86
68634;BME280;55625;47.072;22.192;2022-08-01T13:13:45;99596.38;;;23.65;58.23
68634;BME280;55625;47.072;22.192;2022-08-01T13:16:20;99603.50;;;23.40;57.44
68634;BME280;55625;47.072;22.192;2022-08-01T13:18:52;99599.84;;;23.39;56.61
68634;BME280;55625;47.072;22.192;2022-08-01T13:21:25;99601.47;;;23.35;57.95
68634;BME280;55625;47.072;22.192;2022-08-01T13:24:12;99593.03;;;23.37;58.48
68634;BME280;55625;47.072;22.192;2022-08-01T13:29:32;99592.78;;;23.35;59.62